Pagrindinis puslapis
METAR-TAF:

METAR-TAF

Oro uostai :

Brno, Čekija

platuma: 49-09N, ilguma: 016-42E, Aukštis: 241 m

Dabartinis oras

Ataskaita buvo paskelbta 16 minutes, ne 19:30 UTC
Vėjas 6 kt iš Rytų
Temperatūra 8°C
Drėgmė 87%
Slėgis 1013 hPa
Matomumas: 7000 m

METAR: LKTB 291930Z 10006KT 7000 NSC 08/06 Q1013 NOSIG

Laikas: 20:46 (19:46 UTC)

Prognozė

Ataskaita buvo paskelbta 2 valandos ir 46 minutes, ne 17:00 UTC
Prognozė galioja nuo 29 metu 18 UTC su 01 metu 18 UTC
Vėjas 8 kt iš Pietų/Pietryčių
Matomumas 10 km arba daugiau
Išsisklaidę debesys ne aukštis 3600 ft
Tapsmas
nuo 01 metu 09 UTC su 01 metu 11 UTC
Matomumas: 7000 m
Su prošvaistėmis ne aukštis 1500 ft
Apsiniaukę ne aukštis 3000 ft
Laikinai
nuo 01 metu 11 UTC su 01 metu 18 UTC
Matomumas: 4000 m
Su prošvaistėmis ne aukštis 600 ft
Apsiniaukę ne aukštis 1500 ft
lietus, rūkana,

TAF: LKTB 291700Z 2918/0118 15008KT 9999 SCT036 BECMG 0109/0111 7000 BKN015 OVC030 TEMPO 0111/0118 4000 -RA BR BKN006 OVC015

Orai ataskaitas ir orų prognozės (METAR, TAF).

turimą stotys yra geltonos ir raudonos taškus žemėlapyje.

Perkelti pele per norėdami pamatyti stoties vardą.

Tada spustelėkite, norėdami matyti oro stebėjimo ir prognozės.

Norėdami pakeisti žemėlapį: spustelėkite ant žalios mygtukų su juodo kryžiaus žemyn,; žalią mygtuką su brūkšneliu, jei norite nutolinti; arba žalių rodyklių gretimoms žemėlapius.


METAR-TAF: